createdAt,value
2022-08-20T00:02:14.632Z,98771.27
2022-08-20T00:04:42.419Z,98780.52
2022-08-20T00:07:10.034Z,98786.50
2022-08-20T00:09:38.295Z,98790.89
2022-08-20T00:12:06.784Z,98800.81
2022-08-20T00:14:35.188Z,98814.44
2022-08-20T00:17:04.457Z,98833.83
2022-08-20T00:19:32.202Z,98848.21
2022-08-20T00:21:59.834Z,98846.09
2022-08-20T00:24:28.426Z,98848.64
2022-08-20T00:26:56.030Z,98857.81
2022-08-20T00:29:23.761Z,98854.95
2022-08-20T00:31:51.483Z,98848.95
2022-08-20T00:34:19.201Z,98846.91
2022-08-20T00:36:47.015Z,98850.40
2022-08-20T00:39:14.672Z,98838.21
2022-08-20T00:41:42.373Z,98835.83
2022-08-20T00:44:18.576Z,98837.77
2022-08-20T00:46:46.898Z,98827.75
2022-08-20T00:49:18.844Z,98821.61
2022-08-20T00:51:54.530Z,98813.15
2022-08-20T00:54:27.895Z,98787.20
2022-08-20T00:57:02.786Z,98775.36
2022-08-20T00:59:33.010Z,98774.23
2022-08-20T01:02:01.706Z,98761.80
2022-08-20T01:04:31.562Z,98770.35
2022-08-20T01:07:01.213Z,98759.14
2022-08-20T01:09:50.158Z,98738.09
2022-08-20T01:12:17.642Z,98754.48
2022-08-20T01:14:46.261Z,98759.50
2022-08-20T01:17:17.776Z,98768.84
2022-08-20T01:19:59.981Z,98768.42
2022-08-20T01:23:14.588Z,98764.56
2022-08-20T01:25:53.594Z,98746.99
2022-08-20T01:28:27.892Z,98741.09
2022-08-20T01:30:56.026Z,98749.95
2022-08-20T01:33:24.829Z,98744.95
2022-08-20T01:35:53.468Z,98743.20
2022-08-20T01:38:21.977Z,98746.19
2022-08-20T01:41:28.698Z,98728.08
2022-08-20T01:43:58.340Z,98710.94
2022-08-20T01:46:35.665Z,98712.58
2022-08-20T01:49:22.959Z,98698.76
2022-08-20T01:51:53.618Z,98681.87
2022-08-20T01:54:22.075Z,98666.36
2022-08-20T01:57:03.737Z,98656.69
2022-08-20T01:59:31.697Z,98657.25
2022-08-20T02:02:00.438Z,98660.55
2022-08-20T02:04:28.705Z,98671.11
2022-08-20T02:06:59.105Z,98678.23
2022-08-20T02:09:29.397Z,98680.13
2022-08-20T02:11:58.033Z,98674.08
2022-08-20T02:14:26.958Z,98683.99
2022-08-20T02:16:58.641Z,98687.01
2022-08-20T02:19:31.408Z,98669.06
2022-08-20T02:22:03.558Z,98663.81
2022-08-20T02:24:31.271Z,98669.31
2022-08-20T02:26:58.895Z,98671.33
2022-08-20T02:29:26.557Z,98669.66
2022-08-20T02:32:32.340Z,98659.58
2022-08-20T02:34:43.239Z,98648.45
2022-08-20T02:37:14.667Z,98652.20
2022-08-20T02:39:43.088Z,98657.59
2022-08-20T02:42:12.222Z,98660.63
2022-08-20T02:44:40.181Z,98657.15
2022-08-20T02:47:07.953Z,98657.11
2022-08-20T02:49:35.550Z,98657.98
2022-08-20T02:52:03.787Z,98654.21
2022-08-20T02:54:31.403Z,98652.81
2022-08-20T02:56:59.048Z,98650.27
2022-08-20T02:59:26.769Z,98642.64
2022-08-20T03:02:00.564Z,98638.80
2022-08-20T03:04:30.357Z,98634.84
2022-08-20T03:06:59.443Z,98639.41
2022-08-20T03:09:27.331Z,98638.67
2022-08-20T03:11:55.092Z,98635.44
2022-08-20T03:14:22.814Z,98634.53
2022-08-20T03:16:50.889Z,98634.00
2022-08-20T03:19:18.583Z,98630.59
2022-08-20T03:21:46.233Z,98625.77
2022-08-20T03:24:13.885Z,98623.39
2022-08-20T03:26:42.029Z,98622.48
2022-08-20T03:29:09.953Z,98631.48
2022-08-20T03:31:37.755Z,98637.79
2022-08-20T03:34:05.385Z,98640.99
2022-08-20T03:36:33.169Z,98646.53
2022-08-20T03:39:05.200Z,98653.16
2022-08-20T03:41:32.869Z,98656.03
2022-08-20T03:44:00.573Z,98654.89
2022-08-20T03:46:29.108Z,98659.05
2022-08-20T03:49:00.501Z,98657.33
2022-08-20T03:51:30.168Z,98655.92
2022-08-20T03:53:58.950Z,98656.88
2022-08-20T03:56:28.022Z,98654.49
2022-08-20T03:58:56.043Z,98653.78
2022-08-20T04:01:44.260Z,98654.00
2022-08-20T04:04:12.661Z,98651.40
2022-08-20T04:06:42.570Z,98643.16
2022-08-20T04:09:12.330Z,98643.85
2022-08-20T04:11:41.123Z,98642.59
2022-08-20T04:14:11.091Z,98652.19
2022-08-20T04:16:40.517Z,98649.84
2022-08-20T04:19:08.810Z,98645.08
2022-08-20T04:21:36.925Z,98647.02
2022-08-20T04:24:06.169Z,98646.84
2022-08-20T04:26:36.385Z,98653.35
2022-08-20T04:29:04.844Z,98657.84
2022-08-20T04:31:35.313Z,98659.91
2022-08-20T04:34:04.635Z,98664.46
2022-08-20T04:36:32.429Z,98671.57
2022-08-20T04:39:00.094Z,98669.39
2022-08-20T04:41:27.983Z,98675.52
2022-08-20T04:43:57.107Z,98674.55
2022-08-20T04:46:28.860Z,98678.88
2022-08-20T04:48:57.639Z,98682.14
2022-08-20T04:51:26.874Z,98679.75
2022-08-20T04:53:56.412Z,98680.23
2022-08-20T04:56:26.938Z,98678.16
2022-08-20T04:58:57.996Z,98684.91
2022-08-20T05:01:26.418Z,98685.39
2022-08-20T05:03:57.433Z,98686.58
2022-08-20T05:06:28.683Z,98685.59
2022-08-20T05:08:57.924Z,98681.51
2022-08-20T05:11:35.966Z,98673.30
2022-08-20T05:14:08.543Z,98671.22
2022-08-20T05:16:38.397Z,98671.80
2022-08-20T05:19:08.847Z,98682.02
2022-08-20T05:21:37.622Z,98684.92
2022-08-20T05:24:06.455Z,98684.38
2022-08-20T05:26:35.873Z,98679.91
2022-08-20T05:29:05.556Z,98678.55
2022-08-20T05:31:34.667Z,98676.27
2022-08-20T05:34:10.687Z,98673.02
2022-08-20T05:36:45.101Z,98674.61
2022-08-20T05:39:13.408Z,98674.27
2022-08-20T05:41:41.222Z,98673.54
2022-08-20T05:44:10.890Z,98671.78
2022-08-20T05:46:42.842Z,98675.47
2022-08-20T05:49:13.650Z,98668.03
2022-08-20T05:51:41.310Z,98657.95
2022-08-20T05:54:09.876Z,98650.76
2022-08-20T05:56:37.711Z,98644.52
2022-08-20T05:59:07.650Z,98643.52
2022-08-20T06:01:37.142Z,98643.92
2022-08-20T06:04:24.791Z,98642.89
2022-08-20T06:06:56.579Z,98643.47
2022-08-20T06:09:31.246Z,98644.89
2022-08-20T06:12:06.202Z,98643.09
2022-08-20T06:14:35.094Z,98638.66
2022-08-20T06:17:14.238Z,98635.57
2022-08-20T06:19:44.801Z,98632.41
2022-08-20T06:22:17.937Z,98635.72
2022-08-20T06:24:49.053Z,98637.58
2022-08-20T06:27:17.000Z,98645.17
2022-08-20T06:29:45.026Z,98649.11
2022-08-20T06:32:12.954Z,98649.80
2022-08-20T06:34:50.454Z,98643.58
2022-08-20T06:37:31.487Z,98644.21
2022-08-20T06:40:09.062Z,98640.75
2022-08-20T06:42:37.210Z,98640.05
2022-08-20T06:45:05.813Z,98640.63
2022-08-20T06:47:34.249Z,98643.19
2022-08-20T06:50:02.127Z,98646.20
2022-08-20T06:52:51.613Z,98643.42
2022-08-20T06:55:17.698Z,98648.09
2022-08-20T06:57:47.947Z,98645.27
2022-08-20T07:00:19.845Z,98645.27
2022-08-20T07:02:48.149Z,98649.89
2022-08-20T07:05:16.676Z,98655.11
2022-08-20T07:07:46.991Z,98652.19
2022-08-20T07:10:17.021Z,98657.41
2022-08-20T07:12:46.528Z,98659.17
2022-08-20T07:15:15.247Z,98660.23
2022-08-20T07:17:43.220Z,98661.38
2022-08-20T07:20:13.988Z,98655.35
2022-08-20T07:22:42.312Z,98663.06
2022-08-20T07:25:12.782Z,98662.24
2022-08-20T07:27:40.984Z,98668.15
2022-08-20T07:30:31.332Z,98674.77
2022-08-20T07:32:59.425Z,98676.02
2022-08-20T07:35:27.993Z,98676.45
2022-08-20T07:37:56.817Z,98681.16
2022-08-20T07:40:27.546Z,98683.70
2022-08-20T07:42:56.751Z,98682.23
2022-08-20T07:45:25.396Z,98680.27
2022-08-20T07:47:53.746Z,98679.90
2022-08-20T07:50:24.488Z,98685.22
2022-08-20T07:52:53.263Z,98685.61
2022-08-20T07:55:21.857Z,98683.89
2022-08-20T07:57:50.299Z,98687.28
2022-08-20T08:00:20.589Z,98688.35
2022-08-20T08:02:48.377Z,98683.98
2022-08-20T08:05:17.770Z,98685.56
2022-08-20T08:07:50.876Z,98683.56
2022-08-20T08:10:24.940Z,98686.90
2022-08-20T08:12:59.649Z,98684.42
2022-08-20T08:15:33.191Z,98683.20
2022-08-20T08:18:09.363Z,98674.39
2022-08-20T08:20:46.590Z,98672.89
2022-08-20T08:23:24.742Z,98679.27
2022-08-20T08:25:59.918Z,98679.23
2022-08-20T08:28:29.774Z,98686.02
2022-08-20T08:30:58.188Z,98686.54
2022-08-20T08:33:28.995Z,98684.77
2022-08-20T08:36:01.832Z,98683.52
2022-08-20T08:38:34.558Z,98681.75
2022-08-20T08:41:17.424Z,98682.58
2022-08-20T08:43:53.357Z,98675.50
2022-08-20T08:46:27.528Z,98672.27
2022-08-20T08:48:57.958Z,98670.95
2022-08-20T08:51:41.876Z,98672.41
2022-08-20T08:54:25.035Z,98673.17
2022-08-20T08:56:54.660Z,98669.88
2022-08-20T08:59:28.321Z,98669.92
2022-08-20T09:02:26.069Z,98673.68
2022-08-20T09:04:58.620Z,98678.05
2022-08-20T09:07:29.080Z,98676.17
2022-08-20T09:09:57.007Z,98676.77
2022-08-20T09:12:27.838Z,98679.11
2022-08-20T09:14:56.040Z,98684.63
2022-08-20T09:17:24.020Z,98688.50
2022-08-20T09:19:52.441Z,98694.79
2022-08-20T09:22:25.563Z,98694.92
2022-08-20T09:24:53.891Z,98691.80
2022-08-20T09:27:21.659Z,98687.75
2022-08-20T09:29:50.261Z,98695.23
2022-08-20T09:32:21.822Z,98696.15
2022-08-20T09:34:56.352Z,98703.54
2022-08-20T09:37:26.947Z,98708.48
2022-08-20T09:39:55.372Z,98707.59
2022-08-20T09:42:28.258Z,98712.05
2022-08-20T09:44:56.235Z,98718.23
2022-08-20T09:47:24.341Z,98716.77
2022-08-20T09:49:52.280Z,98720.83
2022-08-20T09:52:26.536Z,98722.26
2022-08-20T09:54:59.793Z,98721.33
2022-08-20T09:57:29.401Z,98723.80
2022-08-20T10:00:05.328Z,98717.12
2022-08-20T10:02:40.303Z,98713.70
2022-08-20T10:05:09.361Z,98712.70
2022-08-20T10:07:41.160Z,98713.18
2022-08-20T10:10:11.219Z,98712.98
2022-08-20T10:12:41.839Z,98716.02
2022-08-20T10:15:10.781Z,98716.11
2022-08-20T10:17:40.376Z,98716.70
2022-08-20T10:20:10.886Z,98717.05
2022-08-20T10:22:38.625Z,98710.58
2022-08-20T10:25:06.666Z,98707.91
2022-08-20T10:27:34.441Z,98702.52
2022-08-20T10:30:04.763Z,98699.50
2022-08-20T10:32:32.579Z,98697.61
2022-08-20T10:35:00.330Z,98694.67
2022-08-20T10:37:28.482Z,98688.47
2022-08-20T10:39:56.306Z,98684.60
2022-08-20T10:42:23.968Z,98684.05
2022-08-20T10:44:51.799Z,98680.46
2022-08-20T10:47:29.159Z,98689.13
2022-08-20T10:49:58.925Z,98694.39
2022-08-20T10:52:27.151Z,98697.88
2022-08-20T10:54:55.537Z,98699.02
2022-08-20T10:57:28.874Z,98700.10
2022-08-20T10:59:59.121Z,98699.63
2022-08-20T11:02:27.881Z,98704.94
2022-08-20T11:04:56.216Z,98706.42
2022-08-20T11:07:55.328Z,98708.13
2022-08-20T11:10:14.125Z,98708.61
2022-08-20T11:12:43.591Z,98707.05
2022-08-20T11:15:15.016Z,98705.59
2022-08-20T11:17:44.393Z,98704.39
2022-08-20T11:20:14.680Z,98700.10
2022-08-20T11:22:42.373Z,98694.97
2022-08-20T11:25:10.385Z,98694.16
2022-08-20T11:27:42.553Z,98696.81
2022-08-20T11:30:18.226Z,98688.73
2022-08-20T11:32:45.940Z,98692.94
2022-08-20T11:35:41.166Z,98693.93
2022-08-20T11:38:03.157Z,98694.15
2022-08-20T11:40:31.549Z,98690.09
2022-08-20T11:43:14.108Z,98687.79
2022-08-20T11:45:47.859Z,98684.39
2022-08-20T11:48:15.592Z,98682.98
2022-08-20T11:50:43.265Z,98683.34
2022-08-20T11:53:10.902Z,98679.77
2022-08-20T11:55:39.063Z,98677.46
2022-08-20T11:58:06.993Z,98674.67
2022-08-20T12:00:36.948Z,98675.17
2022-08-20T12:03:09.105Z,98673.34
2022-08-20T12:05:38.527Z,98667.84
2022-08-20T12:08:09.227Z,98671.89
2022-08-20T12:10:38.308Z,98663.98
2022-08-20T12:13:06.964Z,98667.27
2022-08-20T12:15:37.719Z,98661.05
2022-08-20T12:18:07.644Z,98664.02
2022-08-20T12:20:38.111Z,98667.91
2022-08-20T12:23:07.296Z,98662.92
2022-08-20T12:25:35.094Z,98664.95
2022-08-20T12:28:05.134Z,98660.93
2022-08-20T12:30:33.608Z,98666.09
2022-08-20T12:33:01.584Z,98667.64
2022-08-20T12:35:29.789Z,98663.48
2022-08-20T12:38:03.808Z,98667.70
2022-08-20T12:40:33.202Z,98665.15
2022-08-20T12:43:03.942Z,98661.41
2022-08-20T12:45:33.526Z,98657.77
2022-08-20T12:48:07.547Z,98654.64
2022-08-20T12:50:40.513Z,98658.02
2022-08-20T12:53:11.987Z,98653.71
2022-08-20T12:55:40.149Z,98653.02
2022-08-20T12:58:10.676Z,98654.21
2022-08-20T13:00:50.401Z,98656.17
2022-08-20T13:03:20.890Z,98663.82
2022-08-20T13:05:49.667Z,98665.88
2022-08-20T13:08:19.477Z,98660.56
2022-08-20T13:10:47.784Z,98664.94
2022-08-20T13:13:20.584Z,98663.73
2022-08-20T13:15:50.950Z,98661.79
2022-08-20T13:18:22.604Z,98655.45
2022-08-20T13:20:50.349Z,98651.02
2022-08-20T13:23:18.173Z,98652.40
2022-08-20T13:25:46.376Z,98648.81
2022-08-20T13:28:14.035Z,98648.36
2022-08-20T13:30:41.897Z,98651.89
2022-08-20T13:33:09.607Z,98645.73
2022-08-20T13:35:37.749Z,98650.27
2022-08-20T13:38:05.631Z,98654.48
2022-08-20T13:40:33.576Z,98654.95
2022-08-20T13:43:06.538Z,98660.84
2022-08-20T13:45:38.053Z,98666.23
2022-08-20T13:48:10.027Z,98666.49
2022-08-20T13:50:47.292Z,98665.31
2022-08-20T13:53:16.417Z,98663.92
2022-08-20T13:55:45.980Z,98666.08
2022-08-20T13:58:13.788Z,98664.48
2022-08-20T14:00:41.667Z,98667.69
2022-08-20T14:03:11.791Z,98666.70
2022-08-20T14:05:45.443Z,98666.77
2022-08-20T14:08:17.354Z,98664.61
2022-08-20T14:10:47.186Z,98665.78
2022-08-20T14:13:21.561Z,98667.02
2022-08-20T14:15:49.650Z,98666.14
2022-08-20T14:18:19.990Z,98668.40
2022-08-20T14:20:47.817Z,98669.51
2022-08-20T14:23:15.855Z,98664.16
2022-08-20T14:25:49.336Z,98665.44
2022-08-20T14:28:23.227Z,98670.04
2022-08-20T14:30:59.114Z,98671.84
2022-08-20T14:33:43.953Z,98669.16
2022-08-20T14:36:12.419Z,98669.71
2022-08-20T14:38:47.833Z,98669.15
2022-08-20T14:41:15.534Z,98671.44
2022-08-20T14:43:45.288Z,98673.84
2022-08-20T14:46:15.319Z,98676.16
2022-08-20T14:48:44.347Z,98672.45
2022-08-20T14:51:11.933Z,98671.50
2022-08-20T14:53:40.631Z,98673.54
2022-08-20T14:56:08.575Z,98673.65
2022-08-20T14:58:37.568Z,98669.70
2022-08-20T15:01:05.392Z,98672.66
2022-08-20T15:03:33.062Z,98675.48
2022-08-20T15:06:00.754Z,98675.80
2022-08-20T15:08:29.727Z,98671.60
2022-08-20T15:11:03.601Z,98671.40
2022-08-20T15:13:31.449Z,98672.54
2022-08-20T15:15:59.131Z,98675.45
2022-08-20T15:18:29.183Z,98672.84
2022-08-20T15:20:56.954Z,98671.33
2022-08-20T15:23:24.625Z,98667.70
2022-08-20T15:25:52.467Z,98668.36
2022-08-20T15:28:20.522Z,98662.45
2022-08-20T15:30:48.311Z,98662.55
2022-08-20T15:33:16.120Z,98663.29
2022-08-20T15:35:46.399Z,98664.77
2022-08-20T15:38:17.545Z,98663.91
2022-08-20T15:40:49.487Z,98662.79
2022-08-20T15:43:19.406Z,98664.32
2022-08-20T15:45:49.500Z,98666.53
2022-08-20T15:48:19.555Z,98662.30
2022-08-20T15:50:47.372Z,98668.83
2022-08-20T15:53:39.833Z,98665.33
2022-08-20T15:56:33.836Z,98666.20
2022-08-20T15:59:10.498Z,98664.17
2022-08-20T16:02:06.085Z,98660.98
2022-08-20T16:04:45.807Z,98659.91
2022-08-20T16:07:17.607Z,98662.65
2022-08-20T16:10:06.716Z,98660.00
2022-08-20T16:12:40.679Z,98655.56
2022-08-20T16:15:23.086Z,98653.54
2022-08-20T16:18:07.939Z,98651.29
2022-08-20T16:20:40.781Z,98643.38
2022-08-20T16:23:16.053Z,98646.88
2022-08-20T16:26:05.175Z,98645.16
2022-08-20T16:28:45.558Z,98642.16
2022-08-20T16:31:17.482Z,98642.54
2022-08-20T16:34:30.520Z,98640.55
2022-08-20T16:37:22.094Z,98634.58
2022-08-20T16:39:57.589Z,98637.20
2022-08-20T16:42:29.871Z,98641.16
2022-08-20T16:44:57.518Z,98641.42
2022-08-20T16:47:31.885Z,98637.45
2022-08-20T16:50:11.101Z,98637.11
2022-08-20T16:52:42.717Z,98642.14
2022-08-20T16:55:12.054Z,98649.30
2022-08-20T16:57:39.948Z,98650.44
2022-08-20T17:00:30.357Z,98647.95
2022-08-20T17:03:01.096Z,98648.67
2022-08-20T17:05:43.953Z,98648.85
2022-08-20T17:08:21.883Z,98656.21
2022-08-20T17:11:10.984Z,98657.64
2022-08-20T17:13:42.951Z,98657.85
2022-08-20T17:16:13.941Z,98662.50
2022-08-20T17:18:53.041Z,98663.99
2022-08-20T17:21:28.278Z,98664.08
2022-08-20T17:23:58.494Z,98659.70
2022-08-20T17:26:35.580Z,98660.20
2022-08-20T17:29:17.535Z,98652.96
2022-08-20T17:31:48.907Z,98650.46
2022-08-20T17:34:20.426Z,98656.02
2022-08-20T17:36:50.041Z,98655.86
2022-08-20T17:39:19.506Z,98657.25
2022-08-20T17:41:51.023Z,98656.70
2022-08-20T17:44:33.491Z,98657.36
2022-08-20T17:47:06.443Z,98657.21
2022-08-20T17:49:43.351Z,98653.85
2022-08-20T17:52:33.209Z,98656.48
2022-08-20T17:55:01.957Z,98654.55
2022-08-20T17:57:33.432Z,98659.20
2022-08-20T18:00:08.185Z,98660.23
2022-08-20T18:02:38.617Z,98664.23
2022-08-20T18:05:16.711Z,98665.20
2022-08-20T18:08:06.732Z,98670.36
2022-08-20T18:10:40.067Z,98668.93
2022-08-20T18:13:15.686Z,98667.48
2022-08-20T18:15:54.073Z,98660.95
2022-08-20T18:18:49.441Z,98666.64
2022-08-20T18:21:42.082Z,98671.94
2022-08-20T18:24:13.443Z,98675.39
2022-08-20T18:26:45.314Z,98674.77
2022-08-20T18:29:32.094Z,98677.17
2022-08-20T18:32:01.646Z,98678.89
2022-08-20T18:34:29.543Z,98679.83
2022-08-20T18:37:25.613Z,98679.90
2022-08-20T18:40:09.993Z,98676.64
2022-08-20T18:42:37.991Z,98675.64
2022-08-20T18:45:06.479Z,98671.85
2022-08-20T18:47:34.009Z,98664.27
2022-08-20T18:50:19.448Z,98667.20
2022-08-20T18:52:56.108Z,98666.61
2022-08-20T18:55:38.597Z,98670.64
2022-08-20T18:58:13.570Z,98669.41
2022-08-20T19:00:49.424Z,98667.89
2022-08-20T19:03:36.927Z,98671.08
2022-08-20T19:06:31.058Z,98673.90
2022-08-20T19:09:24.381Z,98666.90
2022-08-20T19:11:55.008Z,98664.58
2022-08-20T19:14:53.422Z,98665.80
2022-08-20T19:17:41.041Z,98660.61
2022-08-20T19:20:14.963Z,98656.67
2022-08-20T19:22:44.476Z,98655.59
2022-08-20T19:25:29.247Z,98650.15
2022-08-20T19:28:02.290Z,98647.09
2022-08-20T19:30:36.503Z,98641.55
2022-08-20T19:33:05.636Z,98632.91
2022-08-20T19:35:35.122Z,98620.34
2022-08-20T19:38:15.845Z,98611.36
2022-08-20T19:40:46.180Z,98612.00
2022-08-20T19:43:19.195Z,98618.64
2022-08-20T19:45:54.530Z,98631.98
2022-08-20T19:48:43.710Z,98644.23
2022-08-20T19:51:25.877Z,98647.33
2022-08-20T19:53:53.571Z,98643.90
2022-08-20T19:56:24.517Z,98645.29
2022-08-20T19:59:09.176Z,98642.16
2022-08-20T20:01:37.289Z,98643.43
2022-08-20T20:04:15.098Z,98644.17
2022-08-20T20:06:47.318Z,98650.68
2022-08-20T20:09:22.204Z,98658.41
2022-08-20T20:11:54.375Z,98668.58
2022-08-20T20:14:27.240Z,98673.68
2022-08-20T20:16:56.018Z,98676.00
2022-08-20T20:19:27.170Z,98680.27
2022-08-20T20:22:19.248Z,98683.83
2022-08-20T20:24:57.127Z,98679.52
2022-08-20T20:27:26.407Z,98679.50
2022-08-20T20:30:26.655Z,98683.66
2022-08-20T20:32:55.109Z,98685.58
2022-08-20T20:35:29.383Z,98689.03
2022-08-20T20:38:03.506Z,98686.61
2022-08-20T20:40:47.918Z,98678.49
2022-08-20T20:43:39.005Z,98685.40
2022-08-20T20:46:19.808Z,98691.46
2022-08-20T20:48:53.971Z,98695.16
2022-08-20T20:51:45.584Z,98685.95
2022-08-20T20:54:40.556Z,98671.62
2022-08-20T20:57:17.598Z,98666.08
2022-08-20T20:59:52.684Z,98673.27
2022-08-20T21:02:23.221Z,98682.86
2022-08-20T21:04:51.791Z,98690.63
2022-08-20T21:07:22.273Z,98695.27
2022-08-20T21:09:52.010Z,98701.59
2022-08-20T21:12:20.887Z,98698.79
2022-08-20T21:14:48.927Z,98698.52
2022-08-20T21:17:21.956Z,98689.94
2022-08-20T21:19:51.483Z,98689.34
2022-08-20T21:22:20.557Z,98688.91
2022-08-20T21:24:51.434Z,98693.59
2022-08-20T21:27:22.866Z,98688.97
2022-08-20T21:29:51.404Z,98688.48
2022-08-20T21:32:21.138Z,98684.10
2022-08-20T21:34:50.044Z,98683.52
2022-08-20T21:37:19.368Z,98684.16
2022-08-20T21:39:52.817Z,98684.66
2022-08-20T21:42:29.256Z,98682.05
2022-08-20T21:44:59.972Z,98683.52
2022-08-20T21:47:27.859Z,98681.91
2022-08-20T21:49:56.211Z,98679.83
2022-08-20T21:52:27.308Z,98679.30
2022-08-20T21:55:03.327Z,98682.36
2022-08-20T21:57:34.010Z,98682.97
2022-08-20T22:00:21.622Z,98686.23
2022-08-20T22:02:49.798Z,98692.55
2022-08-20T22:05:24.958Z,98690.95
2022-08-20T22:07:54.970Z,98683.38
2022-08-20T22:10:26.207Z,98690.04
2022-08-20T22:13:00.659Z,98690.96
2022-08-20T22:15:28.838Z,98690.64
2022-08-20T22:17:57.132Z,98697.80
2022-08-20T22:20:26.164Z,98694.77
2022-08-20T22:22:55.776Z,98692.17
2022-08-20T22:25:23.708Z,98690.44
2022-08-20T22:27:51.595Z,98698.40
2022-08-20T22:30:19.733Z,98695.87
2022-08-20T22:32:52.285Z,98696.17
2022-08-20T22:35:20.341Z,98689.83
2022-08-20T22:37:48.143Z,98686.27
2022-08-20T22:40:15.902Z,98677.98
2022-08-20T22:42:44.064Z,98678.86
2022-08-20T22:45:15.112Z,98670.91
2022-08-20T22:47:44.451Z,98677.36
2022-08-20T22:50:13.227Z,98677.69
2022-08-20T22:52:45.803Z,98675.52
2022-08-20T22:55:14.015Z,98673.81
2022-08-20T22:57:42.138Z,98670.77
2022-08-20T23:00:14.192Z,98668.98
2022-08-20T23:02:42.912Z,98663.54
2022-08-20T23:05:16.653Z,98660.48
2022-08-20T23:07:44.569Z,98662.70
2022-08-20T23:10:12.500Z,98665.74
2022-08-20T23:12:41.594Z,98667.38
2022-08-20T23:15:09.857Z,98668.58
2022-08-20T23:17:38.199Z,98674.83
2022-08-20T23:20:08.339Z,98673.27
2022-08-20T23:22:36.464Z,98675.85
2022-08-20T23:25:05.868Z,98679.11
2022-08-20T23:27:35.871Z,98674.19
2022-08-20T23:30:04.830Z,98678.91
2022-08-20T23:32:32.497Z,98671.44
2022-08-20T23:35:00.234Z,98668.59
2022-08-20T23:37:28.336Z,98675.76
2022-08-20T23:39:56.268Z,98676.27
2022-08-20T23:42:23.988Z,98677.98
2022-08-20T23:44:51.713Z,98679.19
2022-08-20T23:47:21.639Z,98676.60
2022-08-20T23:49:49.462Z,98675.15
2022-08-20T23:52:17.532Z,98678.13
2022-08-20T23:54:45.162Z,98677.02
2022-08-20T23:57:12.970Z,98675.99
2022-08-20T23:59:41.557Z,98672.61
